Time;durP1;ratioP1;P1;durP2;ratioP2;P2;SDS_P1;SDS_P2;PMS_P1;PMS_P2;Temp;Humidity;BMP_temperature;BMP_pressure;BME280_temperature;BME280_humidity;BME280_pressure;Samples;Min_cycle;Max_cycle;Signal;HPM_P1;HPM_P2
2022/10/27 00:02:13;;;;;;;23.30;8.07;;;;;;;-145.69;100.00;52527.56;5135857;27;20204;-85
2022/10/27 00:04:39;;;;;;;22.37;7.67;;;;;;;-145.69;100.00;52507.75;5135795;27;20232;-85
2022/10/27 00:07:06;;;;;;;23.23;7.85;;;;;;;-145.69;100.00;52549.34;5135626;27;20208;-85
2022/10/27 00:09:32;;;;;;;24.37;7.50;;;;;;;-145.69;100.00;52531.53;5135785;27;20201;-85
2022/10/27 00:11:59;;;;;;;25.33;8.15;;;;;;;-145.69;100.00;52523.59;5135454;27;20203;-85
2022/10/27 00:14:27;;;;;;;20.50;8.38;;;;;;;-145.69;100.00;52551.31;5135536;27;20498;-85
2022/10/27 00:16:55;;;;;;;24.90;8.45;;;;;;;-145.69;100.00;52563.22;5135904;27;20197;-85
2022/10/27 00:19:23;;;;;;;32.97;8.68;;;;;;;-145.69;100.00;52541.44;5135753;27;20200;-85
2022/10/27 00:21:50;;;;;;;24.83;8.32;;;;;;;-145.69;100.00;52543.41;5135475;27;20203;-85
2022/10/27 00:24:17;;;;;;;24.33;7.30;;;;;;;-145.69;100.00;52527.56;5135572;27;20228;-85
2022/10/27 00:26:44;;;;;;;23.05;8.40;;;;;;;-145.69;100.00;52553.31;5134876;27;20647;-85
2022/10/27 00:29:10;;;;;;;22.90;8.00;;;;;;;-145.69;100.00;52509.75;5135363;27;20209;-85
2022/10/27 00:31:41;;;;;;;22.23;7.27;;;;;;;-145.69;100.00;52545.38;5135258;27;20208;-85
2022/10/27 00:34:07;;;;;;;20.42;7.65;;;;;;;-145.69;100.00;52567.16;5130663;27;20578;-85
2022/10/27 00:36:34;;;;;;;28.73;8.07;;;;;;;-145.69;100.00;52539.44;5114404;28;20673;-85
2022/10/27 00:39:00;;;;;;;15.00;5.95;;;;;;;-145.69;100.00;52535.47;5114724;28;20197;-85
2022/10/27 00:41:31;;;;;;;28.53;7.90;;;;;;;-145.69;100.00;52533.50;5114431;28;20723;-85
2022/10/27 00:44:00;;;;;;;25.33;6.83;;;;;;;-145.69;100.00;52545.38;5114314;28;20229;-85
2022/10/27 00:46:34;;;;;;;19.83;6.53;;;;;;;-145.69;100.00;52537.47;5114272;28;20291;-85
2022/10/27 00:49:06;;;;;;;22.80;7.43;;;;;;;-145.69;100.00;52543.41;5114465;28;20250;-85
2022/10/27 00:51:33;;;;;;;22.05;6.90;;;;;;;-145.69;100.00;52559.25;5114519;28;20204;-85
2022/10/27 00:54:00;;;;;;;21.60;6.20;;;;;;;-145.69;100.00;52543.41;5114036;28;20201;-85
2022/10/27 00:56:26;;;;;;;19.13;6.13;;;;;;;-145.69;100.00;52535.47;5114284;28;20198;-85
2022/10/27 00:58:53;;;;;;;15.33;6.80;;;;;;;-145.69;100.00;52543.41;5130311;27;20196;-85
2022/10/27 01:01:20;;;;;;;24.80;6.63;;;;;;;-145.69;100.00;52571.13;5155182;27;20192;-85
2022/10/27 01:03:47;;;;;;;23.10;7.10;;;;;;;-145.69;100.00;52515.69;5154962;27;20230;-85
2022/10/27 01:06:15;;;;;;;20.60;6.10;;;;;;;-145.69;100.00;52545.38;5155607;27;20196;-85
2022/10/27 01:08:43;;;;;;;19.58;6.18;;;;;;;-145.69;100.00;52604.81;5148877;27;20189;-85
2022/10/27 01:11:09;;;;;;;20.13;6.10;;;;;;;-145.69;100.00;52551.31;5134453;27;20228;-85
2022/10/27 01:13:37;;;;;;;28.70;6.10;;;;;;;-145.69;100.00;52527.56;5137499;27;20192;-85
2022/10/27 01:16:14;;;;;;;18.00;6.23;;;;;;;-145.69;100.00;52537.47;5147474;27;20195;-85
2022/10/27 01:18:53;;;;;;;13.83;4.97;;;;;;;-145.69;100.00;52535.47;5134976;27;20630;-85
2022/10/27 01:22:01;;;;;;;19.87;5.83;;;;;;;-145.69;100.00;52571.13;5154694;27;20204;-84
2022/10/27 01:25:02;;;;;;;12.67;5.60;;;;;;;-145.69;100.00;52565.19;5071001;28;20226;-85
2022/10/27 01:28:01;;;;;;;22.00;5.90;;;;;;;-145.69;100.00;52547.38;5154584;27;20204;-85
2022/10/27 01:30:31;;;;;;;25.13;6.13;;;;;;;-145.69;100.00;52563.22;5154378;27;20196;-85
2022/10/27 01:33:12;;;;;;;22.07;6.70;;;;;;;-145.69;100.00;52559.25;5155004;27;20226;-84
2022/10/27 01:35:46;;;;;;;29.40;6.60;;;;;;;-145.69;100.00;52575.09;5154749;27;20650;-85
2022/10/27 01:38:19;;;;;;;19.97;7.07;;;;;;;-145.69;100.00;52517.66;5138252;27;20647;-85
2022/10/27 01:40:55;;;;;;;23.13;7.03;;;;;;;-145.69;100.00;52565.19;5134142;27;20291;-85
2022/10/27 01:43:26;;;;;;;20.50;7.50;;;;;;;-145.69;100.00;52547.38;5134002;27;20444;-86
2022/10/27 01:45:54;;;;;;;25.03;7.07;;;;;;;-145.69;100.00;52567.16;5136553;27;20192;-85
2022/10/27 01:48:22;;;;;;;16.17;5.77;;;;;;;-145.69;100.00;52583.00;5122681;27;20201;-86
2022/10/27 01:50:49;;;;;;;21.07;6.13;;;;;;;-145.69;100.00;52535.47;5133977;28;20236;-85
2022/10/27 01:53:16;;;;;;;16.97;4.80;;;;;;;-145.69;100.00;52579.06;5134033;27;20197;-85
2022/10/27 01:55:53;;;;;;;17.77;5.63;;;;;;;-145.69;100.00;52551.31;5127714;27;20673;-85
2022/10/27 01:58:52;;;;;;;16.33;6.00;;;;;;;-145.69;100.00;52559.25;5134174;27;20253;-86
2022/10/27 02:01:38;;;;;;;16.80;5.50;;;;;;;-145.69;100.00;52559.25;5133686;27;20201;-85
2022/10/27 02:04:13;;;;;;;13.87;4.83;;;;;;;-145.69;100.00;52543.41;5133988;28;20255;-85
2022/10/27 02:06:47;;;;;;;21.80;5.30;;;;;;;-145.69;100.00;52543.41;5133914;27;20559;-85
2022/10/27 02:09:27;;;;;;;13.90;4.97;;;;;;;-145.69;100.00;52551.31;5132722;28;20200;-85
2022/10/27 02:12:00;;;;;;;16.47;4.67;;;;;;;-145.69;100.00;52569.16;5133940;27;20279;-85
2022/10/27 02:14:27;;;;;;;17.17;4.70;;;;;;;-145.69;100.00;52565.19;5136208;27;20193;-85
2022/10/27 02:16:59;;;;;;;10.20;4.07;;;;;;;-145.69;100.00;52543.41;5154322;27;20192;-85
2022/10/27 02:19:37;;;;;;;12.70;4.27;;;;;;;-145.69;100.00;52575.09;5154197;27;20684;-85
2022/10/27 02:22:06;;;;;;;11.87;4.70;;;;;;;-145.69;100.00;52577.06;5154782;27;20534;-85
2022/10/27 02:24:33;;;;;;;17.00;4.70;;;;;;;-145.69;100.00;52561.22;5153842;27;20224;-85
2022/10/27 02:27:08;;;;;;;12.93;5.47;;;;;;;-145.69;100.00;52549.34;5154191;27;20299;-85
2022/10/27 02:29:46;;;;;;;14.37;5.00;;;;;;;-145.69;100.00;52571.13;5148741;27;20208;-85
2022/10/27 02:32:16;;;;;;;18.77;5.63;;;;;;;-145.69;100.00;52531.53;5133968;27;20287;-85
2022/10/27 02:34:45;;;;;;;17.83;4.50;;;;;;;-145.69;100.00;52565.19;5137637;27;20295;-86
2022/10/27 02:37:19;;;;;;;15.50;4.90;;;;;;;-145.69;100.00;52569.16;5137544;27;20205;-85
2022/10/27 02:39:45;;;;;;;15.23;5.13;;;;;;;-145.69;100.00;52529.53;5137709;27;20196;-85
2022/10/27 02:42:12;;;;;;;13.87;5.37;;;;;;;-145.69;100.00;52563.22;5137044;27;20200;-85
2022/10/27 02:44:38;;;;;;;20.30;5.80;;;;;;;-145.69;100.00;52600.84;5141267;27;20579;-85
2022/10/27 02:47:05;;;;;;;15.70;5.03;;;;;;;-145.69;100.00;52551.31;5158045;27;20204;-85
2022/10/27 02:49:31;;;;;;;14.90;4.70;;;;;;;-145.69;100.00;52567.16;5157943;27;20199;-85
2022/10/27 02:52:01;;;;;;;16.13;5.00;;;;;;;-145.69;100.00;52555.28;5157852;27;20211;-85
2022/10/27 02:54:27;;;;;;;10.97;3.97;;;;;;;-145.69;100.00;52561.22;5157675;27;20204;-84
2022/10/27 02:56:54;;;;;;;14.83;5.10;;;;;;;-145.69;100.00;52559.25;5158127;27;20199;-86
2022/10/27 02:59:21;;;;;;;16.03;4.90;;;;;;;-145.69;100.00;52551.31;5157626;27;20248;-85
2022/10/27 03:01:47;;;;;;;14.97;4.70;;;;;;;-145.69;100.00;52561.22;5157419;27;20273;-85
2022/10/27 03:04:17;;;;;;;13.13;4.27;;;;;;;-145.69;100.00;52541.44;5157683;27;20234;-85
2022/10/27 03:06:46;;;;;;;17.43;3.87;;;;;;;-145.69;100.00;52594.91;5157836;27;20200;-85
2022/10/27 03:09:15;;;;;;;18.03;3.90;;;;;;;-145.69;100.00;52571.13;5157279;27;20199;-85
2022/10/27 03:11:41;;;;;;;14.47;4.10;;;;;;;-145.69;100.00;52565.19;5156326;27;20600;-85
2022/10/27 03:14:08;;;;;;;13.40;5.13;;;;;;;-145.69;100.00;52579.06;5154959;27;20192;-85
2022/10/27 03:16:35;;;;;;;18.07;4.50;;;;;;;-145.69;100.00;52555.28;5136540;27;20212;-85
2022/10/27 03:19:01;;;;;;;13.30;5.17;;;;;;;-145.69;100.00;52573.13;5136604;27;20196;-85
2022/10/27 03:21:28;;;;;;;17.53;5.57;;;;;;;-145.69;100.00;52555.28;5136836;27;20585;-85
2022/10/27 03:23:54;;;;;;;12.97;5.30;;;;;;;-145.69;100.00;52590.94;5136810;27;20205;-85
2022/10/27 03:26:22;;;;;;;12.47;5.27;;;;;;;-145.69;100.00;52588.97;5136360;27;20192;-85
2022/10/27 03:28:48;;;;;;;26.93;6.23;;;;;;;-145.69;100.00;52586.97;5136028;27;20235;-85
2022/10/27 03:31:17;;;;;;;22.03;6.13;;;;;;;-145.69;100.00;52614.72;5136646;27;20685;-85
2022/10/27 03:33:44;;;;;;;20.13;6.17;;;;;;;-145.69;100.00;52531.53;5136595;27;20256;-85
2022/10/27 03:36:12;;;;;;;16.27;6.13;;;;;;;-145.69;100.00;52551.31;5136108;27;20210;-85
2022/10/27 03:38:39;;;;;;;22.67;7.03;;;;;;;-145.69;100.00;52569.16;5136502;27;20201;-85
2022/10/27 03:41:06;;;;;;;18.67;6.13;;;;;;;-145.69;100.00;52577.06;5136194;27;20196;-84
2022/10/27 03:43:34;;;;;;;22.23;6.50;;;;;;;-145.69;100.00;52571.13;5135807;27;20199;-85
2022/10/27 03:46:01;;;;;;;27.10;8.13;;;;;;;-145.69;100.00;52598.84;5153592;27;20220;-85
2022/10/27 03:48:29;;;;;;;26.60;9.27;;;;;;;-145.69;100.00;52590.94;5156770;27;20195;-85
2022/10/27 03:50:58;;;;;;;23.00;6.83;;;;;;;-145.69;100.00;52579.06;5156981;27;20234;-85
2022/10/27 03:53:27;;;;;;;22.37;7.73;;;;;;;-145.69;100.00;52539.44;5156549;27;20203;-86
2022/10/27 03:55:57;;;;;;;29.47;8.33;;;;;;;-145.69;100.00;52586.97;5156601;27;20200;-85
2022/10/27 03:58:26;;;;;;;26.57;8.93;;;;;;;-145.69;100.00;52551.31;5151410;27;20196;-85
2022/10/27 04:00:56;;;;;;;27.07;9.10;;;;;;;-145.69;100.00;52567.16;5135841;27;20658;-84
2022/10/27 04:03:23;;;;;;;32.60;9.80;;;;;;;-145.69;100.00;52602.81;5135548;27;20204;-85
2022/10/27 04:05:50;;;;;;;38.97;9.83;;;;;;;-145.69;100.00;52563.22;5135647;27;20232;-85
2022/10/27 04:08:16;;;;;;;30.17;8.87;;;;;;;-145.69;100.00;52559.25;5135657;27;20201;-85
2022/10/27 04:10:46;;;;;;;25.17;8.90;;;;;;;-145.69;100.00;52586.97;5135530;27;20197;-85
2022/10/27 04:13:15;;;;;;;31.30;8.50;;;;;;;-145.69;100.00;52533.50;5135917;27;20288;-84
2022/10/27 04:15:44;;;;;;;29.50;8.30;;;;;;;-145.69;100.00;52569.16;5135603;27;20196;-85
2022/10/27 04:18:14;;;;;;;29.63;9.67;;;;;;;-145.69;100.00;52559.25;5135350;27;20193;-85
2022/10/27 04:20:43;;;;;;;33.93;9.20;;;;;;;-145.69;100.00;52602.81;5131160;27;20189;-84
2022/10/27 04:23:10;;;;;;;23.17;7.63;;;;;;;-145.69;100.00;52551.31;5120666;27;20663;-85
2022/10/27 04:25:41;;;;;;;19.30;6.23;;;;;;;-145.69;100.00;52575.09;5135617;27;20319;-85
2022/10/27 04:28:08;;;;;;;17.57;7.00;;;;;;;-145.69;100.00;52563.22;5137094;27;20558;-85
2022/10/27 04:30:36;;;;;;;21.23;7.43;;;;;;;-145.69;100.00;52563.22;5155149;27;20906;-85
2022/10/27 04:33:05;;;;;;;20.87;7.93;;;;;;;-145.69;100.00;52543.41;5155731;27;20843;-85
2022/10/27 04:35:35;;;;;;;23.93;6.80;;;;;;;-145.69;100.00;52537.47;5143916;27;20193;-86
2022/10/27 04:38:03;;;;;;;19.17;6.30;;;;;;;-145.69;100.00;52561.22;5135367;27;20207;-85
2022/10/27 04:40:30;;;;;;;24.43;5.50;;;;;;;-145.69;100.00;52561.22;5135226;27;20196;-85
2022/10/27 04:42:56;;;;;;;14.70;5.65;;;;;;;-145.69;100.00;52583.00;5133995;27;20435;-85
2022/10/27 04:45:23;;;;;;;14.17;4.30;;;;;;;-145.69;100.00;52596.88;5134997;27;20255;-85
2022/10/27 04:47:50;;;;;;;12.33;5.23;;;;;;;-145.69;100.00;52545.38;5134973;27;20243;-85
2022/10/27 04:50:17;;;;;;;14.77;4.70;;;;;;;-145.69;100.00;52569.16;5134862;27;20228;-85
2022/10/27 04:52:56;;;;;;;12.43;3.50;;;;;;;-145.69;100.00;52535.47;5145550;27;20192;-85
2022/10/27 04:55:29;;;;;;;10.55;3.38;;;;;;;-145.69;100.00;52555.28;5154687;27;20637;-86
2022/10/27 04:57:57;;;;;;;11.80;3.90;;;;;;;-145.69;100.00;52571.13;5155316;27;20679;-84
2022/10/27 05:00:30;;;;;;;13.87;3.27;;;;;;;-145.69;100.00;52555.28;5155524;27;20200;-85
2022/10/27 05:02:58;;;;;;;12.30;3.93;;;;;;;-145.69;100.00;52598.84;5155400;27;20227;-85
2022/10/27 05:05:27;;;;;;;20.27;4.20;;;;;;;-145.69;100.00;52569.16;5146862;27;20252;-85
2022/10/27 05:07:57;;;;;;;10.10;4.40;;;;;;;-145.69;100.00;52579.06;5134575;27;20204;-85
2022/10/27 05:10:24;;;;;;;16.10;3.33;;;;;;;-145.69;100.00;52567.16;5134677;27;20197;-85
2022/10/27 05:12:53;;;;;;;10.60;3.53;;;;;;;-145.69;100.00;52543.41;5134395;27;20197;-85
2022/10/27 05:15:20;;;;;;;10.00;3.37;;;;;;;-145.69;100.00;52573.13;5134550;27;20200;-85
2022/10/27 05:17:46;;;;;;;11.13;3.50;;;;;;;-145.69;100.00;52543.41;5134625;27;20228;-85
2022/10/27 05:20:13;;;;;;;18.47;3.10;;;;;;;-145.69;100.00;52567.16;5134492;27;20196;-85
2022/10/27 05:22:40;;;;;;;11.43;3.20;;;;;;;-145.69;100.00;52555.28;5134094;27;20226;-85
2022/10/27 05:25:10;;;;;;;13.10;3.63;;;;;;;-145.69;100.00;52575.09;5133581;27;20445;-85
2022/10/27 05:27:37;;;;;;;11.33;3.37;;;;;;;-145.69;100.00;52579.06;5134345;27;20201;-84
2022/10/27 05:30:04;;;;;;;6.10;2.87;;;;;;;-145.69;100.00;52586.97;5134476;27;20238;-85
2022/10/27 05:32:31;;;;;;;9.70;2.87;;;;;;;-145.69;100.00;52551.31;5134175;27;20225;-85
2022/10/27 05:35:00;;;;;;;14.97;3.10;;;;;;;-145.69;100.00;52590.94;5137956;27;20646;-85
2022/10/27 05:37:27;;;;;;;10.23;3.70;;;;;;;-145.69;100.00;52521.63;5154753;27;20200;-85
2022/10/27 05:39:53;;;;;;;14.83;3.37;;;;;;;-145.69;100.00;52579.06;5154827;27;20196;-85
2022/10/27 05:42:24;;;;;;;12.87;3.27;;;;;;;-145.69;100.00;52525.59;5154822;27;20204;-84
2022/10/27 05:44:50;;;;;;;10.40;2.90;;;;;;;-145.69;100.00;52529.53;5154907;27;20196;-85
2022/10/27 05:47:17;;;;;;;12.20;3.33;;;;;;;-145.69;100.00;52547.38;5138046;27;20214;-85
2022/10/27 05:49:43;;;;;;;9.03;3.13;;;;;;;-145.69;100.00;52565.19;5134143;28;20674;-85
2022/10/27 05:52:10;;;;;;;11.47;3.33;;;;;;;-145.69;100.00;52563.22;5133977;27;20291;-85
2022/10/27 05:54:36;;;;;;;12.83;3.77;;;;;;;-145.69;100.00;52571.13;5134041;28;20200;-83
2022/10/27 05:57:03;;;;;;;9.67;2.87;;;;;;;-145.69;100.00;52559.25;5133705;28;20201;-85
2022/10/27 05:59:31;;;;;;;10.83;2.70;;;;;;;-145.69;100.00;52577.06;5133521;27;20203;-85
2022/10/27 06:01:58;;;;;;;11.40;3.10;;;;;;;-145.69;100.00;52586.97;5134173;28;20203;-84
2022/10/27 06:04:24;;;;;;;12.17;3.73;;;;;;;-145.69;100.00;52594.91;5133995;27;20243;-85
2022/10/27 06:06:53;;;;;;;9.43;3.07;;;;;;;-145.69;100.00;52559.25;5135489;27;20224;-84
2022/10/27 06:09:19;;;;;;;7.67;3.00;;;;;;;-145.69;100.00;52583.00;5137645;27;20197;-85
2022/10/27 06:11:46;;;;;;;11.47;3.30;;;;;;;-145.69;100.00;52555.28;5138178;27;20197;-85
2022/10/27 06:14:12;;;;;;;13.07;3.03;;;;;;;-145.69;100.00;52594.91;5138068;27;20196;-85
2022/10/27 06:16:40;;;;;;;8.77;2.80;;;;;;;-145.69;100.00;52547.38;5137388;27;20196;-85
2022/10/27 06:19:07;;;;;;;9.47;3.53;;;;;;;-145.69;100.00;52545.38;5137599;27;20199;-85
2022/10/27 06:21:33;;;;;;;5.47;2.90;;;;;;;-145.69;100.00;52559.25;5137668;27;20558;-85
2022/10/27 06:24:00;;;;;;;10.50;2.83;;;;;;;-145.69;100.00;52571.13;5131674;27;20204;-85
2022/10/27 06:26:26;;;;;;;9.73;2.97;;;;;;;-145.69;100.00;52569.16;5116992;28;20227;-85
2022/10/27 06:28:53;;;;;;;14.00;2.97;;;;;;;-145.69;100.00;52563.22;5117234;28;20201;-85
2022/10/27 06:31:19;;;;;;;12.63;2.93;;;;;;;-145.69;100.00;52535.47;5116646;28;20196;-85
2022/10/27 06:33:47;;;;;;;15.83;3.03;;;;;;;-145.69;100.00;52553.31;5117101;28;20237;-85
2022/10/27 06:36:14;;;;;;;14.03;3.10;;;;;;;-145.69;100.00;52571.13;5117129;28;20193;-85
2022/10/27 06:38:40;;;;;;;13.03;2.53;;;;;;;-145.69;100.00;52583.00;5116759;28;20204;-85
2022/10/27 06:41:07;;;;;;;10.37;2.80;;;;;;;-145.69;100.00;52569.16;5117051;28;20551;-85
2022/10/27 06:43:35;;;;;;;6.07;2.53;;;;;;;-145.69;100.00;52579.06;5124254;27;20192;-85
2022/10/27 06:46:04;;;;;;;13.10;2.77;;;;;;;-145.69;100.00;52557.28;5158069;27;20689;-85
2022/10/27 06:48:36;;;;;;;12.80;2.93;;;;;;;-145.69;100.00;52545.38;5157876;27;20200;-86
2022/10/27 06:51:06;;;;;;;10.25;2.58;;;;;;;-145.69;100.00;52537.47;5157716;27;20207;-85
2022/10/27 06:53:32;;;;;;;15.23;2.87;;;;;;;-145.69;100.00;52545.38;5157735;27;20196;-85
2022/10/27 06:55:59;;;;;;;7.05;2.60;;;;;;;-145.69;100.00;52533.50;5157836;27;20196;-85
2022/10/27 06:58:28;;;;;;;7.07;2.77;;;;;;;-145.69;100.00;52527.56;5158021;27;20206;-85
2022/10/27 07:00:55;;;;;;;10.97;2.40;;;;;;;-145.69;100.00;52533.50;5157775;27;20287;-85
2022/10/27 07:03:21;;;;;;;11.37;3.07;;;;;;;-145.69;100.00;52537.47;5157649;27;20196;-85
2022/10/27 07:05:48;;;;;;;7.15;2.38;;;;;;;-145.69;100.00;52527.56;5145786;27;20248;-85
2022/10/27 07:08:16;;;;;;;10.33;2.30;;;;;;;-145.69;100.00;52507.75;5136753;27;20203;-84
2022/10/27 07:10:42;;;;;;;11.60;2.67;;;;;;;-145.69;100.00;52583.00;5137643;27;20215;-85
2022/10/27 07:13:09;;;;;;;8.70;2.67;;;;;;;-145.69;100.00;52551.31;5137441;27;20295;-85
2022/10/27 07:15:37;;;;;;;10.10;2.33;;;;;;;-145.69;100.00;52531.53;5137770;27;20208;-85
2022/10/27 07:18:08;;;;;;;15.10;2.70;;;;;;;-145.69;100.00;52523.59;5136945;27;20283;-85
2022/10/27 07:20:38;;;;;;;12.33;2.90;;;;;;;-145.69;100.00;52541.44;5138943;27;20200;-85
2022/10/27 07:23:04;;;;;;;11.02;2.70;;;;;;;-145.69;100.00;52521.63;5144939;27;20188;-85
2022/10/27 07:25:35;;;;;;;9.55;2.65;;;;;;;-145.69;100.00;52521.63;5157369;27;20311;-85
2022/10/27 07:28:04;;;;;;;11.23;2.85;;;;;;;-145.69;100.00;52533.50;5154112;27;20536;-85
2022/10/27 07:30:33;;;;;;;7.47;2.78;;;;;;;-145.69;100.00;52545.38;5136666;27;20196;-85
2022/10/27 07:32:59;;;;;;;7.82;2.33;;;;;;;-145.69;100.00;52511.72;5136309;27;20290;-85
2022/10/27 07:35:31;;;;;;;11.85;2.72;;;;;;;-145.69;100.00;52489.94;5136373;27;20199;-85
2022/10/27 07:37:58;;;;;;;8.25;2.20;;;;;;;-145.69;100.00;52501.81;5136538;27;20201;-85
2022/10/27 07:40:24;;;;;;;6.22;2.53;;;;;;;-145.69;100.00;52511.72;5136125;27;20235;-85
2022/10/27 07:42:55;;;;;;;9.77;2.58;;;;;;;-145.69;100.00;52515.69;5136203;27;20201;-84
2022/10/27 07:45:24;;;;;;;10.30;2.55;;;;;;;-145.69;100.00;52513.69;5135833;27;20872;-85
2022/10/27 07:47:53;;;;;;;11.18;2.45;;;;;;;-145.69;100.00;52519.63;5136269;27;20284;-85
2022/10/27 07:50:21;;;;;;;6.78;2.25;;;;;;;-145.69;100.00;52513.69;5136400;27;20291;-83
2022/10/27 07:52:49;;;;;;;10.00;2.70;;;;;;;-145.69;100.00;52507.75;5136276;27;20211;-85
2022/10/27 07:55:21;;;;;;;14.65;2.28;;;;;;;-145.69;100.00;52507.75;5115298;28;20220;-85
2022/10/27 07:57:48;;;;;;;12.02;2.47;;;;;;;-145.69;100.00;52491.91;5115119;28;20556;-85
2022/10/27 08:00:17;;;;;;;6.05;2.55;;;;;;;-145.69;100.00;52509.75;5119425;27;20228;-84
2022/10/27 08:02:44;;;;;;;9.18;2.53;;;;;;;-145.69;100.00;52499.84;5137362;27;20204;-84
2022/10/27 08:05:11;;;;;;;6.85;2.22;;;;;;;-145.69;100.00;52482.00;5156271;27;20661;-83
2022/10/27 08:07:38;;;;;;;14.70;2.33;;;;;;;-145.69;100.00;52499.84;5156640;27;20286;-84
2022/10/27 08:10:05;;;;;;;7.50;2.03;;;;;;;-145.69;100.00;52480.03;5156139;27;20200;-85
2022/10/27 08:12:33;;;;;;;6.22;2.17;;;;;;;-145.69;100.00;52497.84;5155918;27;20203;-84
2022/10/27 08:15:00;;;;;;;9.27;2.20;;;;;;;-145.69;100.00;52511.72;5143040;27;20284;-86
2022/10/27 08:17:29;;;;;;;8.50;2.03;;;;;;;-145.69;100.00;52487.97;5115302;28;20252;-85
2022/10/27 08:19:55;;;;;;;8.00;1.98;;;;;;;-145.69;100.00;52476.06;5114929;28;20247;-85
2022/10/27 08:22:24;;;;;;;8.35;2.00;;;;;;;-145.69;100.00;52448.34;5114815;28;20208;-84
2022/10/27 08:24:50;;;;;;;14.20;2.22;;;;;;;-145.69;100.00;52460.22;5115015;28;20205;-84
2022/10/27 08:27:17;;;;;;;7.47;2.13;;;;;;;-145.69;100.00;52476.06;5117751;27;20231;-84
2022/10/27 08:29:44;;;;;;;3.20;1.40;;;;;;;-145.69;100.00;52438.44;5135077;27;20192;-83
2022/10/27 08:32:14;;;;;;;9.55;2.20;;;;;;;-145.69;100.00;52499.84;5135691;27;20204;-82
2022/10/27 08:34:44;;;;;;;10.38;2.03;;;;;;;-145.69;100.00;52484.00;5120150;27;20197;-84
2022/10/27 08:37:11;;;;;;;11.00;2.40;;;;;;;-145.69;100.00;52468.16;5114349;28;20204;-83
2022/10/27 08:39:37;;;;;;;12.55;2.13;;;;;;;-145.69;100.00;52472.13;5114597;28;20194;-83
2022/10/27 08:42:13;;;;;;;9.38;2.05;;;;;;;-145.69;100.00;52404.78;5114407;28;20207;-83
2022/10/27 08:44:46;;;;;;;14.50;2.67;;;;;;;-145.69;100.00;52478.06;5114487;27;20296;-84
2022/10/27 08:47:19;;;;;;;7.25;1.92;;;;;;;-145.69;100.00;52440.44;5114292;28;20228;-84
2022/10/27 08:49:50;;;;;;;7.03;2.00;;;;;;;-145.69;100.00;52452.31;5114381;28;20208;-84
2022/10/27 08:52:25;;;;;;;7.43;1.90;;;;;;;-145.69;100.00;52430.53;5114098;28;20283;-85
2022/10/27 08:54:59;;;;;;;9.95;1.63;;;;;;;-145.69;100.00;52462.22;5114240;28;20197;-84
2022/10/27 08:57:28;;;;;;;10.93;1.80;;;;;;;-145.69;100.00;52485.97;5114227;28;20197;-85
2022/10/27 08:59:58;;;;;;;5.32;1.80;;;;;;;-145.69;100.00;52414.69;5117205;28;20222;-83
2022/10/27 09:02:46;;;;;;;7.75;2.00;;;;;;;-145.69;100.00;52452.31;5125605;28;20284;-83
2022/10/27 09:05:29;;;;;;;9.75;1.73;;;;;;;-145.69;100.00;52462.22;5142947;27;20189;-84
2022/10/27 09:08:02;;;;;;;6.65;1.70;;;;;;;-145.69;100.00;52418.63;5134059;27;20228;-83
2022/10/27 09:10:41;;;;;;;6.28;1.50;;;;;;;-145.69;100.00;52404.78;5134367;27;20615;-83
2022/10/27 09:13:17;;;;;;;7.03;2.10;;;;;;;-145.69;100.00;52434.47;5133853;27;20249;-83
2022/10/27 09:15:46;;;;;;;3.55;1.38;;;;;;;-145.69;100.00;52428.53;5135496;27;20197;-84
2022/10/27 09:18:20;;;;;;;9.97;2.00;;;;;;;-145.69;100.00;52432.50;5136551;27;20433;-85
2022/10/27 09:20:51;;;;;;;3.92;1.42;;;;;;;-145.69;99.61;52384.97;5136380;27;20199;-84
2022/10/27 09:23:20;;;;;;;7.65;1.90;;;;;;;-145.69;100.00;52424.59;5137985;27;20698;-83
2022/10/27 09:25:50;;;;;;;4.25;1.70;;;;;;;-145.69;100.00;52408.75;5146763;27;20291;-83
2022/10/27 09:28:19;;;;;;;11.25;1.92;;;;;;;-145.69;100.00;52416.66;5151267;27;20203;-83
2022/10/27 09:30:49;;;;;;;9.63;2.03;;;;;;;-145.69;98.16;52422.59;5144565;27;20200;-83
2022/10/27 09:33:20;;;;;;;6.60;2.05;;;;;;;-145.69;100.00;52410.72;5149597;27;20231;-82
2022/10/27 09:35:49;;;;;;;5.72;1.67;;;;;;;-145.69;98.66;52430.53;5148681;27;20608;-82
2022/10/27 09:38:21;;;;;;;9.13;2.10;;;;;;;-145.69;94.33;52452.31;5145307;27;20253;-82
2022/10/27 09:40:48;;;;;;;15.45;3.58;;;;;;;-145.69;92.85;52432.50;5138844;27;20207;-82
2022/10/27 09:43:14;;;;;;;8.35;1.77;;;;;;;-145.69;97.83;52446.38;5141359;27;20207;-83
2022/10/27 09:45:42;;;;;;;10.80;1.52;;;;;;;-145.69;98.91;52410.72;5136295;27;20197;-83
2022/10/27 09:48:17;;;;;;;5.90;1.80;;;;;;;-145.69;95.20;52365.16;5140690;27;20228;-81
2022/10/27 09:50:49;;;;;;;5.72;1.58;;;;;;;-145.69;100.00;52384.97;5139079;27;20199;-82
2022/10/27 09:53:46;;;;;;;6.47;1.40;;;;;;;-145.69;94.80;52402.78;5144845;27;20193;-81
2022/10/27 09:56:17;;;;;;;6.63;1.55;;;;;;;-145.69;93.17;52392.91;5127606;27;20193;-83
2022/10/27 09:58:55;;;;;;;8.73;1.65;;;;;;;-145.69;80.35;52341.41;5134578;28;20189;-83
2022/10/27 10:01:22;;;;;;;4.72;1.50;;;;;;;-145.69;67.33;52363.19;5133227;28;20441;-83
2022/10/27 10:03:55;;;;;;;12.40;1.55;;;;;;;-145.69;67.30;52345.38;5133786;28;20204;-83
2022/10/27 10:06:29;;;;;;;6.50;1.25;;;;;;;-145.69;74.57;52343.38;5133401;28;20231;-83
2022/10/27 10:09:22;;;;;;;6.75;1.58;;;;;;;-145.69;77.35;52357.25;5123736;27;20189;-83
2022/10/27 10:11:49;;;;;;;7.43;1.30;;;;;;;-145.69;75.40;52329.53;5112918;28;20197;-83
2022/10/27 10:14:23;;;;;;;6.93;1.27;;;;;;;-145.69;58.26;52339.44;5113099;28;20197;-83
2022/10/27 10:16:50;;;;;;;10.25;1.83;;;;;;;-145.69;62.49;52333.47;5123052;27;20706;-81
2022/10/27 10:19:19;;;;;;;6.25;1.42;;;;;;;-145.69;64.79;52317.66;5133087;27;20212;-83
2022/10/27 10:21:53;;;;;;;6.68;1.38;;;;;;;-145.69;74.68;52355.28;5133669;27;20203;-84
2022/10/27 10:24:23;;;;;;;8.20;1.45;;;;;;;-145.69;64.24;52333.47;5133412;27;20663;-83
2022/10/27 10:26:53;;;;;;;9.30;1.40;;;;;;;-145.69;59.94;52333.47;5133043;27;20231;-81
2022/10/27 10:29:27;;;;;;;6.97;1.30;;;;;;;-145.69;58.88;52349.31;5133242;28;20205;-84
2022/10/27 10:32:13;;;;;;;6.85;1.30;;;;;;;-145.69;61.74;52317.66;5133057;28;20197;-85
2022/10/27 10:34:41;;;;;;;9.98;1.50;;;;;;;-145.69;57.39;52329.53;5133700;27;20216;-85
2022/10/27 10:37:45;;;;;;;5.20;1.30;;;;;;;-145.69;56.03;52329.53;5133540;28;20204;-85
2022/10/27 10:40:40;;;;;;;4.70;1.60;;;;;;;-145.69;53.75;52313.69;5133364;27;20197;-82
2022/10/27 10:43:14;;;;;;;3.90;1.08;;;;;;;-145.69;52.15;52291.91;5133358;28;20197;-85
2022/10/27 10:45:41;;;;;;;10.52;1.33;;;;;;;-145.69;55.79;52305.75;5133842;28;20200;-82
2022/10/27 10:48:25;;;;;;;2.23;1.07;;;;;;;-145.69;55.79;52305.75;5149283;27;20949;-82
2022/10/27 10:50:53;;;;;;;10.32;1.63;;;;;;;-145.69;55.21;52337.44;5154331;27;20666;-85
2022/10/27 10:53:26;;;;;;;2.35;1.00;;;;;;;-145.69;55.64;52278.03;5155410;27;20291;-85
2022/10/27 10:55:56;;;;;;;7.72;1.40;;;;;;;-145.69;52.15;52297.84;5156935;27;20195;-84
2022/10/27 10:58:27;;;;;;;7.45;1.20;;;;;;;-145.69;49.88;52285.97;5145702;27;20241;-85
2022/10/27 11:00:56;;;;;;;5.65;1.75;;;;;;;-145.69;51.36;52280.00;5137050;27;20200;-81
2022/10/27 11:03:25;;;;;;;4.32;1.40;;;;;;;-145.69;51.38;52287.94;5135669;27;20215;-82
2022/10/27 11:05:55;;;;;;;5.20;1.30;;;;;;;-145.69;51.62;52303.78;5137143;27;20199;-82
2022/10/27 11:08:26;;;;;;;7.57;1.10;;;;;;;-145.69;50.93;52268.13;5137004;27;20231;-82
2022/10/27 11:10:56;;;;;;;4.88;1.00;;;;;;;-145.69;50.13;52311.69;5137672;27;20227;-84
2022/10/27 11:13:29;;;;;;;5.70;1.20;;;;;;;-145.69;52.02;52303.78;5136585;27;20642;-83
2022/10/27 11:16:00;;;;;;;5.60;1.20;;;;;;;-145.69;48.16;52305.75;5137000;27;20292;-82
2022/10/27 11:18:33;;;;;;;8.00;1.17;;;;;;;-145.69;49.88;52293.88;5116174;28;20652;-84